Pagrindinis puslapis
METAR-TAF:

METAR-TAF

Oro uostai :

Rioača, Kolumbija

platuma: 11-32N, ilguma: 072-56W, Aukštis: 4 m

Dabartinis oras

Ataskaita buvo paskelbta 15 minutes, ne 12:00 UTC
Vėjas 12 kt iš Rytų
Temperatūra 28°C
Drėgmė 74%
Slėgis 1012 hPa
Matomumas 10 km arba daugiau
nėra debesų žemiau 1500 m ir nėra kamuolinių lietaus debesų

METAR: SKRH 041200Z 10012KT CAVOK 28/23 A2988

Laikas: 07:15 (12:15 UTC)


TAF: trūkstamas

Orai ataskaitas ir orų prognozės (METAR, TAF).

turimą stotys yra geltonos ir raudonos taškus žemėlapyje.

Perkelti pele per norėdami pamatyti stoties vardą.

Tada spustelėkite, norėdami matyti oro stebėjimo ir prognozės.

Norėdami pakeisti žemėlapį: spustelėkite ant žalios mygtukų su juodo kryžiaus žemyn,; žalią mygtuką su brūkšneliu, jei norite nutolinti; arba žalių rodyklių gretimoms žemėlapius.


METAR-TAF: